Time;durP1;ratioP1;P1;durP2;ratioP2;P2;SDS_P1;SDS_P2;PMS_P1;PMS_P2;Temp;Humidity;BMP_temperature;BMP_pressure;BME280_temperature;BME280_humidity;BME280_pressure;Samples;Min_cycle;Max_cycle;Signal;HPM_P1;HPM_P2
2023/01/13 00:01:24;;;;;;;25.17;3.03;;;9.60;99.90;;;;;;5048840;28;20073;-64
2023/01/13 00:03:51;;;;;;;29.20;3.67;;;9.60;99.90;;;;;;5048290;28;20487;-64
2023/01/13 00:06:24;;;;;;;30.52;3.42;;;9.60;99.90;;;;;;5048404;28;20120;-64
2023/01/13 00:08:52;;;;;;;27.08;3.42;;;9.50;99.90;;;;;;5030068;28;20088;-64
2023/01/13 00:11:19;;;;;;;19.88;2.55;;;9.50;99.90;;;;;;5047356;28;20047;-64
2023/01/13 00:13:45;;;;;;;22.48;3.72;;;9.40;99.90;;;;;;5030968;28;20090;-64
2023/01/13 00:16:14;;;;;;;35.78;5.00;;;9.40;99.90;;;;;;5048662;28;20037;-64
2023/01/13 00:18:40;;;;;;;34.15;4.80;;;9.30;99.90;;;;;;5030759;28;20102;-64
2023/01/13 00:21:14;;;;;;;24.30;3.53;;;9.30;99.90;;;;;;5042753;28;20049;-64
2023/01/13 00:23:40;;;;;;;31.88;4.93;;;9.20;99.90;;;;;;5046607;28;20784;-64
2023/01/13 00:26:10;;;;;;;34.92;4.00;;;9.10;99.90;;;;;;5034120;28;20427;-64
2023/01/13 00:28:36;;;;;;;;;;;9.00;99.90;;;;;;5041356;28;20048;-64
2023/01/13 00:31:13;;;;;;;33.85;4.88;;;8.90;99.90;;;;;;5046121;28;19925;-64
2023/01/13 00:33:39;;;;;;;33.47;4.93;;;8.80;99.90;;;;;;5044330;28;20504;-64
2023/01/13 00:36:07;;;;;;;26.23;4.38;;;8.80;99.90;;;;;;5048466;28;20036;-64
2023/01/13 00:38:34;;;;;;;57.70;6.65;;;8.70;99.90;;;;;;5030908;28;20041;-64
2023/01/13 00:41:03;;;;;;;38.38;5.13;;;8.70;99.90;;;;;;5048543;28;20074;-64
2023/01/13 00:43:31;;;;;;;54.15;7.03;;;8.70;99.90;;;;;;5044277;28;20051;-64
2023/01/13 00:45:58;;;;;;;59.92;6.57;;;8.60;99.90;;;;;;5048329;28;20057;-64
2023/01/13 00:48:24;;;;;;;42.95;6.05;;;8.60;99.90;;;;;;5047818;28;20049;-64
2023/01/13 00:51:05;;;;;;;43.63;5.65;;;8.50;99.90;;;;;;5048257;28;20041;-64
2023/01/13 00:53:35;;;;;;;;;;;8.50;99.90;;;;;;5047961;28;20044;-64
2023/01/13 00:56:03;;;;;;;34.17;5.10;;;8.50;99.90;;;;;;5048558;28;19921;-64
2023/01/13 00:58:33;;;;;;;36.83;3.97;;;8.40;99.90;;;;;;5047693;28;20088;-64
2023/01/13 01:01:04;;;;;;;47.10;4.97;;;8.30;99.90;;;;;;5046512;28;20037;-64
2023/01/13 01:03:30;;;;;;;59.00;6.32;;;8.40;99.90;;;;;;5046826;28;20041;-64
2023/01/13 01:05:57;;;;;;;22.23;2.90;;;8.40;99.90;;;;;;5048266;28;20075;-64
2023/01/13 01:08:22;;;;;;;36.45;4.80;;;8.40;99.90;;;;;;5047367;28;20403;-64
2023/01/13 01:10:49;;;;;;;22.52;3.55;;;8.40;99.90;;;;;;5047813;28;20482;-64
2023/01/13 01:13:16;;;;;;;44.72;6.18;;;8.30;99.90;;;;;;5046520;28;20432;-64
2023/01/13 01:15:46;;;;;;;30.52;4.72;;;8.30;99.90;;;;;;5045529;28;20053;-63
2023/01/13 01:18:12;;;;;;;54.28;5.78;;;8.30;99.90;;;;;;5045910;28;20490;-64
2023/01/13 01:20:38;;;;;;;62.00;6.25;;;8.20;99.90;;;;;;5012897;28;20057;-64
2023/01/13 01:23:03;;;;;;;53.15;6.10;;;8.20;99.90;;;;;;5047128;28;20041;-64
2023/01/13 01:25:31;;;;;;;33.20;4.63;;;8.20;99.90;;;;;;5046057;28;20084;-64
2023/01/13 01:27:57;;;;;;;38.90;5.53;;;8.20;99.90;;;;;;5047419;28;20140;-63
2023/01/13 01:30:23;;;;;;;52.03;6.15;;;8.20;99.90;;;;;;5033368;28;20546;-64
2023/01/13 01:32:49;;;;;;;44.20;6.28;;;8.10;99.90;;;;;;5044466;28;20045;-64
2023/01/13 01:35:14;;;;;;;73.60;7.47;;;8.10;99.90;;;;;;5025222;28;20136;-64
2023/01/13 01:37:40;;;;;;;57.72;6.57;;;8.00;99.90;;;;;;5036751;28;20052;-64
2023/01/13 01:40:07;;;;;;;49.38;6.95;;;8.00;99.90;;;;;;5045939;28;20052;-63
2023/01/13 01:45:20;;;;;;;51.78;6.30;;;7.90;99.90;;;;;;5044366;28;20041;-64
2023/01/13 01:47:58;;;;;;;52.07;6.90;;;7.90;99.90;;;;;;5021935;28;20504;-63
2023/01/13 01:50:24;;;;;;;51.83;5.85;;;7.90;99.90;;;;;;5025451;28;20295;-64
2023/01/13 01:52:56;;;;;;;23.20;3.35;;;7.90;99.90;;;;;;5047109;28;20426;-64
2023/01/13 01:55:28;;;;;;;46.17;5.82;;;7.90;99.90;;;;;;5046339;28;20086;-64
2023/01/13 01:58:12;;;;;;;40.80;5.80;;;7.90;99.90;;;;;;5045571;28;20045;-64
2023/01/13 02:00:38;;;;;;;62.70;7.40;;;7.90;99.90;;;;;;5046245;28;20132;-64
2023/01/13 02:03:06;;;;;;;50.55;7.63;;;7.90;99.90;;;;;;5020344;28;20128;-64
2023/01/13 02:05:33;;;;;;;64.35;7.22;;;7.80;99.90;;;;;;5028952;28;20071;-64
2023/01/13 02:08:00;;;;;;;48.05;6.13;;;7.80;99.90;;;;;;5044818;28;20048;-64
2023/01/13 02:10:27;;;;;;;52.25;6.45;;;7.80;99.90;;;;;;5039588;28;20049;-64
2023/01/13 02:12:55;;;;;;;52.17;7.30;;;7.80;99.90;;;;;;5047033;28;20121;-64
2023/01/13 02:15:53;;;;;;;70.35;7.88;;;7.80;99.90;;;;;;5046610;28;20084;-64
2023/01/13 02:18:37;;;;;;;50.70;6.40;;;7.80;99.90;;;;;;5008082;28;20061;-64
2023/01/13 02:21:21;;;;;;;68.03;8.20;;;7.80;99.90;;;;;;5047016;28;20128;-63
2023/01/13 02:27:42;;;;;;;58.78;6.25;;;7.80;99.90;;;;;;4997566;28;20144;-63
2023/01/13 02:33:22;;;;;;;41.10;6.05;;;7.80;99.90;;;;;;5044819;28;20518;-64
2023/01/13 02:36:16;;;;;;;62.90;6.20;;;7.80;99.90;;;;;;5046173;28;20431;-64
2023/01/13 02:39:02;;;;;;;21.55;2.65;;;7.80;99.90;;;;;;5042640;28;20123;-63
2023/01/13 02:44:23;;;;;;;49.08;5.50;;;8.00;99.90;;;;;;5038048;28;20049;-64
2023/01/13 02:47:02;;;;;;;27.27;2.75;;;8.00;99.90;;;;;;5034578;28;20394;-63
2023/01/13 02:49:47;;;;;;;25.02;3.45;;;8.00;99.90;;;;;;5037850;28;20048;-64
2023/01/13 02:52:29;;;;;;;47.95;5.90;;;8.00;99.90;;;;;;5014481;28;20091;-64
2023/01/13 02:54:59;;;;;;;60.83;6.95;;;8.00;99.90;;;;;;5032352;28;20107;-64
2023/01/13 02:57:25;;;;;;;;;;;8.00;99.90;;;;;;5051316;28;20041;-63
2023/01/13 02:59:54;;;;;;;27.40;4.57;;;8.00;99.90;;;;;;5050530;28;19924;-64
2023/01/13 03:02:21;;;;;;;37.95;7.20;;;8.00;99.90;;;;;;5050219;28;20037;-64
2023/01/13 03:04:49;;;;;;;45.80;5.30;;;8.00;99.90;;;;;;5047934;28;20045;-64
2023/01/13 03:07:39;;;;;;;33.88;2.97;;;7.90;99.90;;;;;;5049788;28;20045;-63
2023/01/13 03:10:14;;;;;;;55.05;5.97;;;7.90;99.90;;;;;;5044268;28;20135;-63
2023/01/13 03:13:07;;;;;;;51.88;5.32;;;7.90;99.90;;;;;;5031215;28;20549;-63
2023/01/13 03:15:46;;;;;;;48.67;5.55;;;7.80;99.90;;;;;;5046894;28;20060;-64
2023/01/13 03:18:44;;;;;;;35.70;5.65;;;7.80;99.90;;;;;;5018695;28;20453;-63
2023/01/13 03:21:18;;;;;;;33.47;3.85;;;7.80;99.90;;;;;;5016187;28;20496;-64
2023/01/13 03:24:06;;;;;;;54.50;6.57;;;7.80;99.90;;;;;;5028208;28;20048;-64
2023/01/13 03:26:52;;;;;;;59.25;6.63;;;7.80;99.90;;;;;;5048456;28;20103;-63
2023/01/13 03:29:31;;;;;;;38.40;4.75;;;7.80;99.90;;;;;;5049777;28;20049;-64
2023/01/13 03:32:04;;;;;;;48.63;6.25;;;7.70;99.90;;;;;;5038466;28;20209;-63
2023/01/13 03:34:35;;;;;;;23.77;3.78;;;7.70;99.90;;;;;;5049742;28;20048;-63
2023/01/13 03:37:04;;;;;;;19.02;3.55;;;7.70;99.90;;;;;;5049696;28;20045;-64
2023/01/13 03:39:38;;;;;;;24.05;3.45;;;7.60;99.90;;;;;;5049657;28;20438;-63
2023/01/13 03:42:11;;;;;;;50.70;5.85;;;7.60;99.90;;;;;;5018347;28;20061;-63
2023/01/13 03:44:47;;;;;;;35.30;3.92;;;7.60;99.90;;;;;;5043104;28;20055;-64
2023/01/13 03:47:17;;;;;;;12.75;2.05;;;7.60;99.90;;;;;;5036919;28;20049;-63
2023/01/13 03:49:54;;;;;;;46.65;5.03;;;7.50;99.90;;;;;;5049125;28;20045;-63
2023/01/13 03:52:32;;;;;;;46.88;4.95;;;7.60;99.90;;;;;;5038280;28;20045;-64
2023/01/13 03:55:14;;;;;;;47.30;5.38;;;7.50;99.90;;;;;;5048469;28;20056;-63
2023/01/13 03:57:52;;;;;;;21.13;3.35;;;7.50;99.90;;;;;;5048747;28;20045;-64
2023/01/13 04:00:24;;;;;;;43.10;6.15;;;7.50;99.90;;;;;;5047853;28;20057;-63
2023/01/13 04:02:56;;;;;;;49.50;5.32;;;7.50;99.90;;;;;;5046779;28;20570;-64
2023/01/13 04:05:23;;;;;;;41.03;5.32;;;7.50;99.90;;;;;;5049122;28;20605;-63
2023/01/13 04:08:07;;;;;;;47.08;5.25;;;7.40;99.90;;;;;;5048156;28;20072;-63
2023/01/13 04:10:52;;;;;;;27.45;3.65;;;7.50;99.90;;;;;;5049488;28;20045;-63
2023/01/13 04:13:22;;;;;;;9.00;1.20;;;7.40;99.90;;;;;;5048241;28;20041;-63
2023/01/13 04:15:49;;;;;;;42.95;5.03;;;7.40;99.90;;;;;;5048855;28;20045;-64
2023/01/13 04:18:17;;;;;;;33.13;3.88;;;7.40;99.90;;;;;;5049168;28;20125;-63
2023/01/13 04:20:46;;;;;;;42.83;4.85;;;7.40;99.90;;;;;;5030519;28;20061;-63
2023/01/13 04:23:12;;;;;;;40.72;5.47;;;7.40;99.90;;;;;;5048384;28;20087;-63
2023/01/13 04:25:39;;;;;;;44.90;5.40;;;7.40;99.90;;;;;;5048831;28;20120;-64
2023/01/13 04:28:05;;;;;;;30.40;3.88;;;7.30;99.90;;;;;;5048855;28;20073;-63
2023/01/13 04:30:31;;;;;;;35.63;5.43;;;7.30;99.90;;;;;;5030737;28;20071;-63
2023/01/13 04:32:57;;;;;;;39.80;6.10;;;7.30;99.90;;;;;;5029627;28;20051;-64
2023/01/13 04:35:23;;;;;;;40.13;5.55;;;7.20;99.90;;;;;;5026848;28;20365;-63
2023/01/13 04:37:49;;;;;;;33.72;3.80;;;7.20;99.90;;;;;;5041888;28;20128;-64
2023/01/13 04:40:15;;;;;;;49.40;4.70;;;7.30;99.90;;;;;;5027361;28;20136;-63
2023/01/13 04:42:43;;;;;;;32.42;4.32;;;7.30;99.90;;;;;;5040440;28;20049;-64
2023/01/13 04:45:09;;;;;;;35.28;4.18;;;7.30;99.90;;;;;;5030140;28;20491;-63
2023/01/13 04:47:35;;;;;;;50.45;5.63;;;7.30;99.90;;;;;;5048127;28;20060;-64
2023/01/13 04:50:01;;;;;;;49.85;6.10;;;7.30;99.90;;;;;;5013564;28;20049;-64
2023/01/13 04:52:26;;;;;;;61.20;6.85;;;7.30;99.90;;;;;;5048635;28;20111;-63
2023/01/13 04:54:52;;;;;;;23.42;2.75;;;7.30;99.90;;;;;;5021014;28;20037;-64
2023/01/13 04:57:18;;;;;;;38.83;4.55;;;7.30;99.90;;;;;;5048373;28;20576;-64
2023/01/13 04:59:44;;;;;;;20.83;3.25;;;7.40;99.90;;;;;;5048252;28;20061;-64
2023/01/13 05:02:18;;;;;;;50.30;5.80;;;7.40;99.90;;;;;;5014003;28;20053;-63
2023/01/13 05:04:47;;;;;;;16.05;2.65;;;7.40;99.90;;;;;;5044196;28;20431;-64
2023/01/13 05:07:15;;;;;;;20.67;3.38;;;7.40;99.90;;;;;;5045877;28;20053;-63
2023/01/13 05:09:41;;;;;;;39.17;4.55;;;7.50;99.90;;;;;;5030097;28;20068;-64
2023/01/13 05:17:38;;;;;;;22.30;3.88;;;7.70;99.90;;;;;;5043126;28;20049;-64
2023/01/13 05:20:05;;;;;;;44.55;6.13;;;7.70;99.90;;;;;;5047863;28;20170;-64
2023/01/13 05:25:21;;;;;;;31.85;3.55;;;7.80;99.90;;;;;;5020972;28;20056;-64
2023/01/13 05:27:48;;;;;;;43.45;5.32;;;7.90;99.90;;;;;;5043145;28;20048;-63
2023/01/13 05:30:14;;;;;;;17.88;2.38;;;7.90;99.90;;;;;;5047729;28;20084;-64
2023/01/13 05:32:40;;;;;;;13.15;2.05;;;8.00;99.90;;;;;;5047295;28;20044;-64
2023/01/13 05:35:06;;;;;;;37.58;4.20;;;8.00;99.90;;;;;;5029357;28;20048;-64
2023/01/13 05:37:32;;;;;;;46.78;6.00;;;8.00;99.90;;;;;;5025865;28;20041;-64
2023/01/13 05:45:29;;;;;;;31.35;3.70;;;8.00;99.90;;;;;;5046750;28;20055;-63
2023/01/13 05:47:56;;;;;;;24.00;3.10;;;8.10;99.90;;;;;;5046871;28;20037;-64
2023/01/13 05:50:22;;;;;;;47.30;4.80;;;8.10;99.90;;;;;;5047702;28;20141;-63
2023/01/13 05:52:47;;;;;;;32.10;5.03;;;8.10;99.90;;;;;;5046889;28;20080;-63
2023/01/13 05:55:13;;;;;;;30.55;4.13;;;8.10;99.90;;;;;;5046217;28;20048;-63
2023/01/13 05:57:39;;;;;;;44.22;6.88;;;8.10;99.90;;;;;;5047318;28;20041;-64
2023/01/13 06:00:06;;;;;;;33.00;5.30;;;8.10;99.90;;;;;;5046528;28;20080;-64
2023/01/13 06:02:32;;;;;;;21.23;3.63;;;8.10;99.90;;;;;;5029067;28;20476;-63
2023/01/13 06:04:58;;;;;;;29.08;3.92;;;8.20;99.90;;;;;;5045889;28;20664;-63
2023/01/13 06:07:24;;;;;;;42.35;4.68;;;8.20;99.90;;;;;;5047024;28;20136;-64
2023/01/13 06:09:49;;;;;;;31.88;5.07;;;8.20;99.90;;;;;;5046707;28;20518;-64
2023/01/13 06:12:15;;;;;;;33.35;4.63;;;8.20;99.90;;;;;;5012511;28;20053;-64
2023/01/13 06:14:41;;;;;;;22.55;2.78;;;8.20;99.90;;;;;;5046109;28;20040;-63
2023/01/13 06:17:12;;;;;;;43.40;5.82;;;8.20;99.90;;;;;;5025237;28;20128;-63
2023/01/13 06:19:39;;;;;;;29.20;4.05;;;8.20;99.90;;;;;;5025423;28;20067;-64
2023/01/13 06:22:31;;;;;;;31.27;5.07;;;8.20;99.90;;;;;;5031186;28;20124;-63
2023/01/13 06:24:58;;;;;;;28.15;3.35;;;8.20;99.90;;;;;;5042473;28;20060;-63
2023/01/13 06:27:23;;;;;;;19.35;4.32;;;8.10;99.90;;;;;;5038482;28;20376;-64
2023/01/13 06:29:49;;;;;;;29.42;4.20;;;8.10;99.90;;;;;;5045785;28;20049;-64
2023/01/13 06:32:19;;;;;;;27.15;3.83;;;8.10;99.90;;;;;;5026859;28;20558;-63
2023/01/13 06:34:50;;;;;;;59.05;7.43;;;8.10;99.90;;;;;;5027034;28;20045;-64
2023/01/13 06:37:20;;;;;;;50.75;5.70;;;8.00;99.90;;;;;;5043333;28;20056;-63
2023/01/13 06:39:47;;;;;;;37.03;4.67;;;8.00;99.90;;;;;;5046415;28;20056;-64
2023/01/13 06:44:58;;;;;;;26.17;5.40;;;8.00;99.90;;;;;;5046279;28;20041;-63
2023/01/13 06:47:24;;;;;;;14.07;2.25;;;8.00;99.90;;;;;;5040065;28;20053;-63
2023/01/13 06:49:50;;;;;;;42.15;5.78;;;8.00;99.90;;;;;;5046191;28;20574;-64
2023/01/13 06:52:16;;;;;;;35.15;4.28;;;8.00;99.90;;;;;;5046216;28;20072;-63
2023/01/13 06:54:42;;;;;;;23.25;2.55;;;8.00;99.90;;;;;;5046332;28;20442;-64
2023/01/13 06:57:07;;;;;;;22.02;3.17;;;8.00;99.90;;;;;;5041291;28;20072;-63
2023/01/13 06:59:34;;;;;;;18.15;3.25;;;8.00;99.90;;;;;;5046735;28;20069;-64
2023/01/13 07:02:02;;;;;;;36.42;4.25;;;8.00;99.90;;;;;;5045459;28;20055;-64
2023/01/13 07:04:27;;;;;;;25.33;2.88;;;8.00;99.90;;;;;;5028388;28;20055;-63
2023/01/13 07:06:54;;;;;;;12.23;2.15;;;8.00;99.90;;;;;;5025363;28;20049;-63
2023/01/13 07:09:19;;;;;;;29.58;3.30;;;8.00;99.90;;;;;;5045686;28;20041;-64
2023/01/13 07:11:45;;;;;;;30.08;3.38;;;7.90;99.90;;;;;;5025020;28;20136;-64
2023/01/13 07:16:56;;;;;;;16.38;2.42;;;7.80;99.90;;;;;;5046007;28;20057;-64
2023/01/13 07:19:24;;;;;;;40.60;4.70;;;7.80;99.90;;;;;;5029654;28;20026;-64
2023/01/13 07:21:51;;;;;;;34.05;4.10;;;7.80;99.90;;;;;;5040002;28;20552;-64
2023/01/13 07:24:18;;;;;;;33.70;4.18;;;7.80;99.90;;;;;;5045514;28;20048;-64
2023/01/13 07:26:43;;;;;;;33.25;3.72;;;7.70;99.90;;;;;;5046200;28;20396;-64
2023/01/13 07:29:09;;;;;;;16.85;2.42;;;7.70;99.90;;;;;;5045105;28;20078;-64
2023/01/13 07:31:36;;;;;;;41.80;4.63;;;7.60;99.90;;;;;;5025228;28;20037;-64
2023/01/13 07:34:01;;;;;;;32.45;3.08;;;7.60;99.90;;;;;;5045915;28;20041;-64
2023/01/13 07:36:27;;;;;;;22.42;2.85;;;7.60;99.90;;;;;;5049256;28;20384;-64
2023/01/13 07:38:53;;;;;;;26.27;2.88;;;7.50;99.90;;;;;;5049818;28;20048;-64
2023/01/13 07:44:05;;;;;;;30.08;3.17;;;7.50;99.90;;;;;;5049516;28;20045;-64
2023/01/13 07:46:31;;;;;;;16.13;2.22;;;7.50;99.90;;;;;;5031362;28;20510;-64
2023/01/13 07:48:57;;;;;;;32.33;4.15;;;7.40;99.90;;;;;;5049240;28;20109;-64
2023/01/13 07:51:24;;;;;;;30.58;3.67;;;7.40;99.90;;;;;;5050026;28;20112;-64
2023/01/13 07:53:49;;;;;;;20.30;2.28;;;7.40;99.90;;;;;;5049024;28;20033;-63
2023/01/13 07:56:15;;;;;;;28.98;4.13;;;7.40;99.90;;;;;;5049165;28;20387;-64
2023/01/13 07:58:41;;;;;;;20.98;3.45;;;7.40;99.90;;;;;;5049143;28;20480;-64
2023/01/13 08:01:11;;;;;;;3.15;0.88;;;7.30;99.90;;;;;;5045860;28;20029;-64
2023/01/13 08:03:38;;;;;;;17.25;1.45;;;7.40;99.90;;;;;;5044339;28;20048;-64
2023/01/13 08:06:05;;;;;;;14.02;2.05;;;7.30;99.90;;;;;;5043183;28;20040;-64
2023/01/13 08:08:31;;;;;;;11.48;2.28;;;7.30;99.90;;;;;;5043401;28;20071;-64
2023/01/13 08:11:05;;;;;;;32.38;3.40;;;7.30;99.90;;;;;;5028052;28;20037;-64
2023/01/13 08:13:31;;;;;;;30.70;3.58;;;7.30;99.90;;;;;;5048317;28;20816;-64
2023/01/13 08:16:08;;;;;;;24.42;3.42;;;7.30;99.90;;;;;;5046903;28;20377;-64
2023/01/13 08:18:35;;;;;;;33.03;4.30;;;7.30;99.90;;;;;;5048450;28;20592;-64
2023/01/13 08:21:12;;;;;;;7.78;1.38;;;7.30;99.90;;;;;;5048674;28;20040;-64
2023/01/13 08:23:39;;;;;;;21.02;2.67;;;7.40;99.90;;;;;;5048627;28;20053;-64
2023/01/13 08:26:08;;;;;;;31.73;4.00;;;7.30;99.90;;;;;;5048524;28;20420;-64
2023/01/13 08:28:34;;;;;;;34.38;4.03;;;7.40;99.90;;;;;;5045734;28;20046;-64
2023/01/13 08:31:04;;;;;;;33.08;3.38;;;7.40;99.90;;;;;;5047381;28;20056;-64
2023/01/13 08:33:31;;;;;;;20.52;3.17;;;7.40;99.90;;;;;;5016774;28;20696;-64
2023/01/13 08:36:01;;;;;;;29.65;3.58;;;7.40;99.90;;;;;;5046559;28;20146;-64
2023/01/13 08:38:26;;;;;;;24.43;2.80;;;7.50;99.90;;;;;;5046590;28;20049;-64
2023/01/13 08:40:53;;;;;;;23.20;2.92;;;7.50;99.90;;;;;;5029243;28;20041;-64
2023/01/13 08:43:18;;;;;;;19.60;2.60;;;7.50;99.90;;;;;;5048747;28;20396;-64
2023/01/13 08:45:44;;;;;;;31.58;2.80;;;7.60;99.90;;;;;;5029669;28;20037;-64
2023/01/13 08:48:10;;;;;;;43.35;4.75;;;7.60;99.90;;;;;;5048430;28;20053;-64
2023/01/13 08:50:36;;;;;;;47.85;4.78;;;7.60;99.90;;;;;;5045472;28;20495;-64
2023/01/13 08:53:02;;;;;;;29.00;3.33;;;7.70;99.90;;;;;;5045673;28;20048;-64
2023/01/13 08:55:28;;;;;;;16.35;2.00;;;7.70;99.90;;;;;;5026912;28;20599;-64
2023/01/13 08:57:54;;;;;;;26.13;3.78;;;7.70;99.90;;;;;;5047707;28;20040;-64
2023/01/13 09:00:20;;;;;;;28.50;3.75;;;7.70;99.90;;;;;;5029725;28;20033;-64
2023/01/13 09:02:46;;;;;;;10.90;1.70;;;7.70;99.90;;;;;;5046383;28;20542;-64
2023/01/13 09:05:11;;;;;;;27.90;3.75;;;7.80;99.90;;;;;;5046778;28;20171;-64
2023/01/13 09:07:38;;;;;;;27.77;3.50;;;7.80;99.90;;;;;;5027281;28;20088;-64
2023/01/13 09:10:06;;;;;;;20.95;2.70;;;7.80;99.90;;;;;;5046993;28;20048;-64
2023/01/13 09:15:20;;;;;;;45.85;5.07;;;7.90;99.90;;;;;;5043129;28;20128;-64
2023/01/13 09:17:47;;;;;;;9.77;2.03;;;7.90;99.90;;;;;;5047501;28;20369;-64
2023/01/13 09:20:13;;;;;;;36.58;4.40;;;7.90;99.90;;;;;;5029171;28;20053;-64
2023/01/13 09:22:39;;;;;;;27.25;4.28;;;7.90;99.90;;;;;;5045282;28;20124;-64
2023/01/13 09:25:06;;;;;;;9.43;1.58;;;8.00;99.90;;;;;;5045376;28;20636;-64
2023/01/13 09:27:32;;;;;;;41.75;5.03;;;8.00;99.90;;;;;;5028791;28;20102;-64
2023/01/13 09:29:58;;;;;;;41.10;3.45;;;8.00;99.90;;;;;;5029573;28;20060;-64
2023/01/13 09:32:23;;;;;;;19.92;2.80;;;8.00;99.90;;;;;;5044916;28;20047;-64
2023/01/13 09:35:01;;;;;;;46.75;4.60;;;7.90;99.90;;;;;;5046708;28;20048;-64
2023/01/13 09:37:38;;;;;;;51.42;5.80;;;7.90;99.90;;;;;;5046514;28;20450;-63
2023/01/13 09:40:18;;;;;;;19.65;2.72;;;7.80;99.90;;;;;;5036782;28;20048;-64
2023/01/13 09:45:56;;;;;;;17.40;3.15;;;7.70;99.90;;;;;;5042603;28;20766;-64
2023/01/13 09:48:28;;;;;;;31.80;4.47;;;7.60;99.90;;;;;;5046251;28;20053;-64
2023/01/13 09:51:19;;;;;;;28.63;3.58;;;7.60;99.90;;;;;;5025151;28;20037;-64
2023/01/13 09:54:35;;;;;;;33.10;3.85;;;7.50;99.90;;;;;;5024872;28;20080;-64
2023/01/13 09:57:00;;;;;;;10.10;1.45;;;7.50;99.90;;;;;;5020877;28;20057;-64
2023/01/13 09:59:33;;;;;;;16.92;2.03;;;7.40;99.90;;;;;;5037949;28;20046;-64
2023/01/13 10:02:38;;;;;;;13.40;2.20;;;7.40;99.90;;;;;;5043470;28;20048;-64
2023/01/13 10:05:14;;;;;;;22.60;2.88;;;7.40;99.90;;;;;;5046319;28;20470;-63
2023/01/13 10:07:49;;;;;;;26.90;3.97;;;7.40;99.90;;;;;;5045386;28;20136;-64
2023/01/13 10:10:40;;;;;;;31.05;4.00;;;7.40;99.90;;;;;;5044608;28;20049;-64
2023/01/13 10:13:30;;;;;;;28.90;3.58;;;7.40;99.90;;;;;;5031161;28;20045;-64
2023/01/13 10:15:59;;;;;;;21.30;2.75;;;7.40;99.90;;;;;;5041664;28;20049;-64
2023/01/13 10:18:48;;;;;;;29.08;2.67;;;7.40;99.90;;;;;;5046595;28;20053;-63
2023/01/13 10:21:24;;;;;;;34.60;3.75;;;7.40;99.90;;;;;;5023312;28;20060;-63
2023/01/13 10:24:13;;;;;;;40.08;4.80;;;7.50;99.90;;;;;;5043372;28;20155;-63
2023/01/13 10:26:46;;;;;;;33.10;3.40;;;7.40;99.90;;;;;;5045839;28;20044;-63
2023/01/13 10:29:31;;;;;;;24.55;2.35;;;7.40;99.90;;;;;;5044464;28;20523;-63
2023/01/13 10:31:58;;;;;;;26.27;2.92;;;7.40;99.90;;;;;;5044533;28;20040;-64
2023/01/13 10:34:25;;;;;;;26.05;3.05;;;7.40;99.90;;;;;;5040262;28;20107;-63
2023/01/13 10:37:05;;;;;;;14.68;1.98;;;7.40;99.90;;;;;;5027785;28;20119;-64
2023/01/13 10:39:45;;;;;;;31.88;3.25;;;7.40;99.90;;;;;;5025010;28;20048;-64
2023/01/13 10:42:14;;;;;;;33.47;3.08;;;7.40;99.90;;;;;;5025010;28;20040;-64
2023/01/13 10:44:49;;;;;;;11.55;2.00;;;7.40;99.90;;;;;;5027495;28;20048;-64
2023/01/13 10:47:32;;;;;;;32.75;3.40;;;7.40;99.90;;;;;;5023433;28;20046;-64
2023/01/13 10:50:11;;;;;;;21.30;2.45;;;7.50;99.90;;;;;;5026477;28;20119;-64
2023/01/13 10:53:14;;;;;;;17.83;1.63;;;7.50;99.90;;;;;;5039265;28;20037;-64
2023/01/13 10:55:40;;;;;;;22.33;2.78;;;7.60;99.90;;;;;;5040821;28;20049;-64
2023/01/13 10:58:19;;;;;;;10.30;2.15;;;7.60;99.90;;;;;;5027772;28;20037;-64
2023/01/13 11:00:47;;;;;;;19.98;2.05;;;7.60;99.90;;;;;;5026379;28;20048;-64
2023/01/13 11:03:18;;;;;;;16.80;1.52;;;7.60;99.90;;;;;;5045125;28;20052;-64
2023/01/13 11:05:51;;;;;;;37.00;3.50;;;7.60;99.90;;;;;;5043211;28;20091;-64
2023/01/13 11:08:23;;;;;;;29.15;3.30;;;7.70;99.90;;;;;;5011334;28;20057;-64
2023/01/13 11:10:52;;;;;;;16.48;2.45;;;7.70;99.90;;;;;;5049039;28;20045;-63
2023/01/13 11:16:27;;;;;;;22.08;2.75;;;7.80;99.90;;;;;;5031371;28;20045;-63
2023/01/13 11:19:10;;;;;;;22.95;2.20;;;7.90;99.90;;;;;;5049695;28;20041;-64
2023/01/13 11:21:45;;;;;;;24.20;2.38;;;7.90;99.90;;;;;;5026658;28;20499;-64
2023/01/13 11:24:44;;;;;;;16.75;1.77;;;7.90;99.90;;;;;;5023710;28;20055;-64
2023/01/13 11:27:20;;;;;;;27.77;3.40;;;7.90;99.90;;;;;;5029036;28;20049;-64
2023/01/13 11:29:49;;;;;;;39.45;4.13;;;8.00;99.90;;;;;;5045647;28;20041;-64
2023/01/13 11:32:20;;;;;;;24.95;2.50;;;8.00;99.90;;;;;;5029660;28;20446;-64
2023/01/13 11:34:53;;;;;;;19.52;2.15;;;8.00;99.90;;;;;;5047146;28;20145;-64
2023/01/13 11:37:32;;;;;;;17.17;2.13;;;8.00;99.90;;;;;;5048946;28;20041;-64
2023/01/13 11:40:11;;;;;;;30.63;3.05;;;8.00;99.90;;;;;;5045038;28;20045;-64
2023/01/13 11:42:56;;;;;;;15.23;1.70;;;8.10;99.90;;;;;;5046408;28;20049;-64
2023/01/13 11:45:42;;;;;;;30.25;2.88;;;8.10;99.90;;;;;;5044878;28;20049;-64
2023/01/13 11:48:15;;;;;;;11.65;2.17;;;8.20;99.90;;;;;;5043401;28;20376;-64
2023/01/13 11:50:53;;;;;;;20.60;3.20;;;8.20;99.90;;;;;;5025898;28;20039;-64
2023/01/13 11:53:38;;;;;;;15.27;1.65;;;8.20;99.90;;;;;;5031027;28;20059;-64
2023/01/13 11:56:27;;;;;;;12.50;1.80;;;8.20;99.90;;;;;;5023728;28;20045;-64
2023/01/13 11:59:19;;;;;;;18.50;1.55;;;8.10;99.90;;;;;;5048825;28;20052;-64
2023/01/13 12:02:17;;;;;;;24.20;3.67;;;8.10;99.90;;;;;;5042811;28;20427;-64
2023/01/13 12:04:55;;;;;;;22.52;2.08;;;8.10;99.90;;;;;;5044329;28;20048;-64
2023/01/13 12:07:47;;;;;;;33.58;3.40;;;8.20;99.90;;;;;;5049089;28;20045;-64
2023/01/13 12:10:42;;;;;;;15.75;1.73;;;8.20;99.90;;;;;;5028692;28;20093;-64
2023/01/13 12:13:30;;;;;;;23.48;2.50;;;8.20;99.90;;;;;;5028837;28;20071;-63
2023/01/13 12:16:10;;;;;;;29.27;3.70;;;8.20;99.90;;;;;;5046304;28;20041;-64
2023/01/13 12:19:06;;;;;;;;;;;8.20;99.90;;;;;;5049479;28;20067;-64
2023/01/13 12:21:43;;;;;;;13.55;2.10;;;8.30;99.90;;;;;;5034953;28;19925;-64
2023/01/13 12:24:12;;;;;;;5.82;0.82;;;8.30;99.90;;;;;;5046875;28;20132;-64
2023/01/13 12:26:43;;;;;;;13.40;1.58;;;8.30;99.90;;;;;;5035363;28;20059;-63
2023/01/13 12:29:18;;;;;;;30.42;3.10;;;8.30;99.90;;;;;;5010957;28;20499;-64
2023/01/13 12:31:47;;;;;;;12.90;1.67;;;8.30;99.90;;;;;;5011359;28;20045;-63
2023/01/13 12:35:10;;;;;;;4.93;1.35;;;8.30;99.90;;;;;;5039698;28;20048;-63
2023/01/13 12:37:56;;;;;;;9.65;1.38;;;8.30;99.90;;;;;;4948105;28;20133;-63
2023/01/13 12:40:50;;;;;;;24.25;2.28;;;8.30;99.90;;;;;;4941106;28;20082;-63
2023/01/13 12:46:22;;;;;;;7.28;1.17;;;8.30;99.90;;;;;;5035900;28;20045;-63
2023/01/13 12:48:53;;;;;;;10.35;1.42;;;8.30;99.90;;;;;;5039175;28;20056;-63
2023/01/13 12:51:27;;;;;;;15.82;1.20;;;8.30;99.90;;;;;;5028805;28;20045;-63
2023/01/13 12:53:56;;;;;;;17.48;2.17;;;8.40;99.90;;;;;;5044422;28;20388;-63
2023/01/13 12:56:40;;;;;;;13.67;1.57;;;8.40;99.90;;;;;;5046680;28;20041;-64
2023/01/13 12:59:16;;;;;;;27.25;5.13;;;8.40;99.90;;;;;;5027477;28;20447;-63
2023/01/13 13:01:44;;;;;;;27.85;4.47;;;8.20;99.90;;;;;;5044393;28;20066;-63
2023/01/13 13:04:18;;;;;;;22.27;3.13;;;8.10;99.90;;;;;;5046654;28;20037;-63
2023/01/13 13:06:54;;;;;;;5.03;1.65;;;8.10;99.90;;;;;;5043492;28;20049;-63
2023/01/13 13:09:34;;;;;;;3.78;1.15;;;8.10;99.90;;;;;;5028690;28;20060;-64
2023/01/13 13:15:21;;;;;;;3.42;1.00;;;8.30;99.90;;;;;;5042286;28;20115;-65
2023/01/13 13:18:07;;;;;;;12.43;1.60;;;8.50;99.90;;;;;;5025445;28;20045;-63
2023/01/13 13:20:53;;;;;;;6.03;1.80;;;8.60;99.90;;;;;;5043879;28;20135;-63
2023/01/13 13:23:42;;;;;;;9.63;1.95;;;8.60;99.90;;;;;;5038667;28;20049;-63
2023/01/13 13:26:30;;;;;;;4.32;0.73;;;8.70;99.90;;;;;;5028915;28;20128;-63
2023/01/13 13:29:24;;;;;;;3.08;1.05;;;8.70;99.90;;;;;;5043706;28;20423;-63
2023/01/13 13:32:09;;;;;;;12.20;2.13;;;8.60;99.90;;;;;;5043079;28;20507;-63
2023/01/13 13:34:53;;;;;;;8.52;1.30;;;8.60;99.90;;;;;;5046952;28;20413;-63
2023/01/13 13:46:45;;;;;;;4.40;1.00;;;8.50;99.90;;;;;;5024577;28;20049;-63
2023/01/13 13:46:45;;;;;;;14.50;2.05;;;8.50;99.90;;;;;;5045829;28;20079;-63
2023/01/13 13:49:17;;;;;;;6.85;1.02;;;8.60;99.90;;;;;;4986964;28;20049;-63
2023/01/13 13:52:01;;;;;;;4.90;1.60;;;8.60;99.90;;;;;;5046455;28;20559;-63
2023/01/13 13:54:27;;;;;;;2.63;0.75;;;8.60;99.90;;;;;;5028318;28;20518;-63
2023/01/13 13:56:57;;;;;;;7.20;1.17;;;8.60;99.90;;;;;;5043726;28;20167;-63
2023/01/13 13:59:25;;;;;;;3.33;0.93;;;8.60;99.90;;;;;;5046389;28;20081;-63
2023/01/13 14:01:59;;;;;;;3.58;1.23;;;8.60;99.90;;;;;;5045514;28;20037;-63
2023/01/13 14:04:29;;;;;;;5.63;1.20;;;8.60;99.90;;;;;;5046875;28;20056;-63
2023/01/13 14:06:56;;;;;;;6.80;1.08;;;8.60;99.90;;;;;;5045464;28;20060;-63
2023/01/13 14:09:25;;;;;;;5.20;1.75;;;8.60;99.90;;;;;;5046631;28;20052;-63
2023/01/13 14:12:01;;;;;;;5.43;0.80;;;8.60;99.90;;;;;;5046831;28;20075;-63